sensor_id;sensor_type;location;lat;lon;timestamp;pressure;altitude;pressure_sealevel;temperature;humidity
72921;BME280;61064;51.654;5.476;2023-07-31T00:01:12;101058.06;;;16.95;97.16
72921;BME280;61064;51.654;5.476;2023-07-31T00:03:37;101059.06;;;16.89;97.09
72921;BME280;61064;51.654;5.476;2023-07-31T00:06:02;101051.00;;;16.89;97.08
72921;BME280;61064;51.654;5.476;2023-07-31T00:08:28;101052.78;;;16.90;97.29
72921;BME280;61064;51.654;5.476;2023-07-31T00:10:53;101058.06;;;16.96;97.07
72921;BME280;61064;51.654;5.476;2023-07-31T00:13:18;101050.06;;;16.93;97.24
72921;BME280;61064;51.654;5.476;2023-07-31T00:15:44;101043.81;;;16.93;97.11
72921;BME280;61064;51.654;5.476;2023-07-31T00:18:09;101041.13;;;16.91;97.03
72921;BME280;61064;51.654;5.476;2023-07-31T00:20:35;101056.25;;;16.97;97.05
72921;BME280;61064;51.654;5.476;2023-07-31T00:23:00;101054.47;;;16.97;96.89
72921;BME280;61064;51.654;5.476;2023-07-31T00:25:25;101050.88;;;16.98;97.18
72921;BME280;61064;51.654;5.476;2023-07-31T00:27:51;101050.88;;;16.97;97.00
72921;BME280;61064;51.654;5.476;2023-07-31T00:30:16;101057.13;;;16.99;96.73
72921;BME280;61064;51.654;5.476;2023-07-31T00:32:41;101052.66;;;16.98;97.06
72921;BME280;61064;51.654;5.476;2023-07-31T00:35:07;101044.59;;;16.98;96.73
72921;BME280;61064;51.654;5.476;2023-07-31T00:37:32;101043.69;;;16.99;96.81
72921;BME280;61064;51.654;5.476;2023-07-31T00:39:58;101035.66;;;16.97;96.71
72921;BME280;61064;51.654;5.476;2023-07-31T00:42:24;101047.28;;;16.99;96.77
72921;BME280;61064;51.654;5.476;2023-07-31T00:44:49;101049.09;;;16.97;96.68
72921;BME280;61064;51.654;5.476;2023-07-31T00:47:15;101045.53;;;16.95;96.56
72921;BME280;61064;51.654;5.476;2023-07-31T00:49:40;101040.19;;;16.94;96.62
72921;BME280;61064;51.654;5.476;2023-07-31T00:52:06;101034.75;;;16.98;96.75
72921;BME280;61064;51.654;5.476;2023-07-31T00:54:32;101036.53;;;16.98;96.67
72921;BME280;61064;51.654;5.476;2023-07-31T00:56:58;101030.28;;;16.96;96.45
72921;BME280;61064;51.654;5.476;2023-07-31T00:59:24;101024.09;;;16.92;96.40
72921;BME280;61064;51.654;5.476;2023-07-31T01:01:49;101032.94;;;16.99;96.34
72921;BME280;61064;51.654;5.476;2023-07-31T01:04:15;101027.59;;;16.97;96.39
72921;BME280;61064;51.654;5.476;2023-07-31T01:06:48;101029.38;;;16.98;96.43
72921;BME280;61064;51.654;5.476;2023-07-31T01:09:37;101028.47;;;16.98;96.25
72921;BME280;61064;51.654;5.476;2023-07-31T01:12:06;101026.69;;;16.98;96.18
72921;BME280;61064;51.654;5.476;2023-07-31T01:14:32;101021.31;;;16.97;96.03
72921;BME280;61064;51.654;5.476;2023-07-31T01:16:59;101022.22;;;16.97;96.16
72921;BME280;61064;51.654;5.476;2023-07-31T01:19:26;101021.31;;;16.97;96.15
72921;BME280;61064;51.654;5.476;2023-07-31T01:23:07;101026.69;;;16.97;96.23
72921;BME280;61064;51.654;5.476;2023-07-31T01:25:05;101037.44;;;16.97;95.99
72921;BME280;61064;51.654;5.476;2023-07-31T01:27:35;101039.25;;;16.95;96.23
72921;BME280;61064;51.654;5.476;2023-07-31T01:30:11;101035.69;;;16.94;96.06
72921;BME280;61064;51.654;5.476;2023-07-31T01:32:43;101021.41;;;16.92;96.09
72921;BME280;61064;51.654;5.476;2023-07-31T01:35:12;101027.63;;;16.94;96.16
72921;BME280;61064;51.654;5.476;2023-07-31T01:37:41;101012.50;;;16.89;96.09
72921;BME280;61064;51.654;5.476;2023-07-31T01:40:06;101014.25;;;16.91;96.16
72921;BME280;61064;51.654;5.476;2023-07-31T01:42:32;101023.13;;;16.95;96.10
72921;BME280;61064;51.654;5.476;2023-07-31T01:44:57;101007.09;;;16.89;95.94
72921;BME280;61064;51.654;5.476;2023-07-31T01:47:23;101007.09;;;16.89;95.90
72921;BME280;61064;51.654;5.476;2023-07-31T01:49:49;101016.03;;;16.92;95.92
72921;BME280;61064;51.654;5.476;2023-07-31T01:52:14;101014.22;;;16.93;95.98
72921;BME280;61064;51.654;5.476;2023-07-31T01:54:39;101015.16;;;16.89;95.71
72921;BME280;61064;51.654;5.476;2023-07-31T01:57:05;101004.41;;;16.90;95.63
72921;BME280;61064;51.654;5.476;2023-07-31T01:59:30;101009.75;;;16.93;95.72
72921;BME280;61064;51.654;5.476;2023-07-31T02:01:56;101017.75;;;16.95;95.66
72921;BME280;61064;51.654;5.476;2023-07-31T02:04:21;101012.38;;;16.95;95.46
72921;BME280;61064;51.654;5.476;2023-07-31T02:06:46;100999.91;;;16.92;95.31
72921;BME280;61064;51.654;5.476;2023-07-31T02:09:12;100987.41;;;16.90;95.32
72921;BME280;61064;51.654;5.476;2023-07-31T02:11:38;101001.69;;;16.93;95.10
72921;BME280;61064;51.654;5.476;2023-07-31T02:14:04;100998.16;;;16.90;95.25
72921;BME280;61064;51.654;5.476;2023-07-31T02:16:29;100992.75;;;16.91;94.99
72921;BME280;61064;51.654;5.476;2023-07-31T02:18:54;100980.28;;;16.87;94.81
72921;BME280;61064;51.654;5.476;2023-07-31T02:21:20;100978.44;;;16.89;94.85
72921;BME280;61064;51.654;5.476;2023-07-31T02:23:45;100974.94;;;16.84;94.70
72921;BME280;61064;51.654;5.476;2023-07-31T02:26:11;100982.94;;;16.89;94.43
72921;BME280;61064;51.654;5.476;2023-07-31T02:28:36;100977.63;;;16.84;94.56
72921;BME280;61064;51.654;5.476;2023-07-31T02:31:02;100963.38;;;16.82;94.30
72921;BME280;61064;51.654;5.476;2023-07-31T02:33:27;100982.09;;;16.87;94.42
72921;BME280;61064;51.654;5.476;2023-07-31T02:35:53;100974.09;;;16.82;94.37
72921;BME280;61064;51.654;5.476;2023-07-31T02:38:18;100969.56;;;16.84;93.93
72921;BME280;61064;51.654;5.476;2023-07-31T02:40:44;100956.25;;;16.78;94.19
72921;BME280;61064;51.654;5.476;2023-07-31T02:43:09;100955.41;;;16.76;94.07
72921;BME280;61064;51.654;5.476;2023-07-31T02:45:35;100962.47;;;16.82;93.87
72921;BME280;61064;51.654;5.476;2023-07-31T02:48:00;100972.31;;;16.83;93.81
72921;BME280;61064;51.654;5.476;2023-07-31T02:50:26;100949.13;;;16.76;93.52
72921;BME280;61064;51.654;5.476;2023-07-31T02:52:52;100958.00;;;16.81;93.57
72921;BME280;61064;51.654;5.476;2023-07-31T02:55:18;100961.56;;;16.83;93.48
72921;BME280;61064;51.654;5.476;2023-07-31T02:57:43;100966.03;;;16.82;93.25
72921;BME280;61064;51.654;5.476;2023-07-31T03:00:09;100954.44;;;16.80;93.35
72921;BME280;61064;51.654;5.476;2023-07-31T03:02:34;100940.19;;;16.74;93.47
72921;BME280;61064;51.654;5.476;2023-07-31T03:05:00;100950.84;;;16.80;93.07
72921;BME280;61064;51.654;5.476;2023-07-31T03:07:26;100946.44;;;16.77;93.16
72921;BME280;61064;51.654;5.476;2023-07-31T03:09:51;100958.09;;;16.75;93.26
72921;BME280;61064;51.654;5.476;2023-07-31T03:12:16;100951.81;;;16.77;92.94
72921;BME280;61064;51.654;5.476;2023-07-31T03:14:42;100946.44;;;16.76;92.96
72921;BME280;61064;51.654;5.476;2023-07-31T03:17:07;100967.94;;;16.77;92.92
72921;BME280;61064;51.654;5.476;2023-07-31T03:19:33;100959.88;;;16.76;92.93
72921;BME280;61064;51.654;5.476;2023-07-31T03:21:59;100948.34;;;16.71;92.91
72921;BME280;61064;51.654;5.476;2023-07-31T03:24:25;100954.63;;;16.70;92.79
72921;BME280;61064;51.654;5.476;2023-07-31T03:26:50;100956.31;;;16.74;92.66
72921;BME280;61064;51.654;5.476;2023-07-31T03:29:15;100942.09;;;16.69;92.66
72921;BME280;61064;51.654;5.476;2023-07-31T03:31:41;100950.06;;;16.73;92.79
72921;BME280;61064;51.654;5.476;2023-07-31T03:34:06;100947.44;;;16.72;92.55
72921;BME280;61064;51.654;5.476;2023-07-31T03:36:32;100943.84;;;16.71;92.58
72921;BME280;61064;51.654;5.476;2023-07-31T03:38:57;100930.44;;;16.70;92.46
72921;BME280;61064;51.654;5.476;2023-07-31T03:41:23;100932.22;;;16.69;92.59
72921;BME280;61064;51.654;5.476;2023-07-31T03:43:49;100921.56;;;16.66;92.49
72921;BME280;61064;51.654;5.476;2023-07-31T03:46:16;100911.66;;;16.67;92.53
72921;BME280;61064;51.654;5.476;2023-07-31T03:48:42;100915.31;;;16.62;92.51
72921;BME280;61064;51.654;5.476;2023-07-31T03:51:07;100918.81;;;16.68;92.39
72921;BME280;61064;51.654;5.476;2023-07-31T03:53:32;100909.03;;;16.63;92.42
72921;BME280;61064;51.654;5.476;2023-07-31T03:55:58;100919.72;;;16.67;92.46
72921;BME280;61064;51.654;5.476;2023-07-31T03:58:23;100909.91;;;16.66;92.59
72921;BME280;61064;51.654;5.476;2023-07-31T04:00:49;100915.28;;;16.66;92.63
72921;BME280;61064;51.654;5.476;2023-07-31T04:03:14;100901.91;;;16.61;92.38
72921;BME280;61064;51.654;5.476;2023-07-31T04:05:39;100912.59;;;16.66;92.27
72921;BME280;61064;51.654;5.476;2023-07-31T04:08:05;100901.84;;;16.66;92.53
72921;BME280;61064;51.654;5.476;2023-07-31T04:10:31;100893.00;;;16.60;92.70
72921;BME280;61064;51.654;5.476;2023-07-31T04:12:58;100897.44;;;16.61;92.53
72921;BME280;61064;51.654;5.476;2023-07-31T04:15:24;100900.91;;;16.67;92.62
72921;BME280;61064;51.654;5.476;2023-07-31T04:17:49;100909.88;;;16.67;92.63
72921;BME280;61064;51.654;5.476;2023-07-31T04:20:15;100892.03;;;16.65;92.55
72921;BME280;61064;51.654;5.476;2023-07-31T04:22:40;100893.72;;;16.69;92.61
72921;BME280;61064;51.654;5.476;2023-07-31T04:25:08;100891.06;;;16.67;92.66
72921;BME280;61064;51.654;5.476;2023-07-31T04:27:37;100905.28;;;16.72;92.55
72921;BME280;61064;51.654;5.476;2023-07-31T04:30:05;100898.13;;;16.73;92.52
72921;BME280;61064;51.654;5.476;2023-07-31T04:32:30;100882.06;;;16.70;92.58
72921;BME280;61064;51.654;5.476;2023-07-31T04:34:56;100889.22;;;16.71;92.67
72921;BME280;61064;51.654;5.476;2023-07-31T04:37:21;100887.44;;;16.71;92.62
72921;BME280;61064;51.654;5.476;2023-07-31T04:39:47;100891.81;;;16.77;92.62
72921;BME280;61064;51.654;5.476;2023-07-31T04:42:12;100893.53;;;16.79;92.80
72921;BME280;61064;51.654;5.476;2023-07-31T04:44:38;100882.78;;;16.79;92.85
72921;BME280;61064;51.654;5.476;2023-07-31T04:47:03;100886.38;;;16.78;93.07
72921;BME280;61064;51.654;5.476;2023-07-31T04:49:29;100873.94;;;16.73;93.22
72921;BME280;61064;51.654;5.476;2023-07-31T04:51:54;100880.16;;;16.76;93.29
72921;BME280;61064;51.654;5.476;2023-07-31T04:54:20;100860.59;;;16.68;93.25
72921;BME280;61064;51.654;5.476;2023-07-31T04:56:45;100866.81;;;16.72;93.43
72921;BME280;61064;51.654;5.476;2023-07-31T04:59:10;100863.25;;;16.71;93.87
72921;BME280;61064;51.654;5.476;2023-07-31T05:01:36;100866.75;;;16.75;94.13
72921;BME280;61064;51.654;5.476;2023-07-31T05:04:01;100843.59;;;16.68;94.32
72921;BME280;61064;51.654;5.476;2023-07-31T05:06:27;100843.56;;;16.71;94.56
72921;BME280;61064;51.654;5.476;2023-07-31T05:08:52;100854.22;;;16.74;94.63
72921;BME280;61064;51.654;5.476;2023-07-31T05:11:18;100850.72;;;16.72;94.86
72921;BME280;61064;51.654;5.476;2023-07-31T05:13:43;100845.38;;;16.69;94.95
72921;BME280;61064;51.654;5.476;2023-07-31T05:16:08;100861.31;;;16.78;95.18
72921;BME280;61064;51.654;5.476;2023-07-31T05:18:34;100841.66;;;16.77;95.52
72921;BME280;61064;51.654;5.476;2023-07-31T05:20:59;100846.06;;;16.78;95.36
72921;BME280;61064;51.654;5.476;2023-07-31T05:23:24;100839.88;;;16.75;95.42
72921;BME280;61064;51.654;5.476;2023-07-31T05:25:50;100847.84;;;16.79;95.56
72921;BME280;61064;51.654;5.476;2023-07-31T05:28:15;100838.97;;;16.76;95.80
72921;BME280;61064;51.654;5.476;2023-07-31T05:30:42;100840.69;;;16.80;95.97
72921;BME280;61064;51.654;5.476;2023-07-31T05:33:07;100819.31;;;16.74;96.07
72921;BME280;61064;51.654;5.476;2023-07-31T05:35:33;100819.38;;;16.71;96.05
72921;BME280;61064;51.654;5.476;2023-07-31T05:37:58;100831.81;;;16.75;96.31
72921;BME280;61064;51.654;5.476;2023-07-31T05:40:24;100830.84;;;16.79;96.33
72921;BME280;61064;51.654;5.476;2023-07-31T05:42:49;100839.69;;;16.84;96.24
72921;BME280;61064;51.654;5.476;2023-07-31T05:45:14;100835.28;;;16.83;96.36
72921;BME280;61064;51.654;5.476;2023-07-31T05:47:40;100823.69;;;16.78;96.63
72921;BME280;61064;51.654;5.476;2023-07-31T05:50:06;100829.00;;;16.82;96.76
72921;BME280;61064;51.654;5.476;2023-07-31T05:52:31;100820.16;;;16.77;97.06
72921;BME280;61064;51.654;5.476;2023-07-31T05:54:56;100821.88;;;16.80;97.23
72921;BME280;61064;51.654;5.476;2023-07-31T05:57:22;100819.25;;;16.77;97.57
72921;BME280;61064;51.654;5.476;2023-07-31T05:59:47;100808.53;;;16.75;97.38
72921;BME280;61064;51.654;5.476;2023-07-31T06:02:13;100814.78;;;16.77;97.85
72921;BME280;61064;51.654;5.476;2023-07-31T06:04:38;100809.41;;;16.77;97.86
72921;BME280;61064;51.654;5.476;2023-07-31T06:07:04;100812.94;;;16.78;97.98
72921;BME280;61064;51.654;5.476;2023-07-31T06:09:29;100800.47;;;16.75;98.25
72921;BME280;61064;51.654;5.476;2023-07-31T06:11:54;100811.16;;;16.78;98.23
72921;BME280;61064;51.654;5.476;2023-07-31T06:14:20;100800.50;;;16.74;98.30
72921;BME280;61064;51.654;5.476;2023-07-31T06:16:45;100793.41;;;16.71;98.31
72921;BME280;61064;51.654;5.476;2023-07-31T06:19:11;100812.09;;;16.77;98.82
72921;BME280;61064;51.654;5.476;2023-07-31T06:21:37;100803.09;;;16.78;98.80
72921;BME280;61064;51.654;5.476;2023-07-31T06:24:06;100804.06;;;16.76;98.97
72921;BME280;61064;51.654;5.476;2023-07-31T06:26:31;100797.72;;;16.78;99.19
72921;BME280;61064;51.654;5.476;2023-07-31T06:28:57;100806.63;;;16.82;99.39
72921;BME280;61064;51.654;5.476;2023-07-31T06:31:22;100798.56;;;16.82;99.41
72921;BME280;61064;51.654;5.476;2023-07-31T06:33:51;100801.19;;;16.83;99.60
72921;BME280;61064;51.654;5.476;2023-07-31T06:36:17;100797.66;;;16.83;99.71
72921;BME280;61064;51.654;5.476;2023-07-31T06:38:43;100792.28;;;16.83;99.68
72921;BME280;61064;51.654;5.476;2023-07-31T06:41:09;100794.03;;;16.84;99.73
72921;BME280;61064;51.654;5.476;2023-07-31T06:43:35;100789.50;;;16.86;100.00
72921;BME280;61064;51.654;5.476;2023-07-31T06:46:05;100790.41;;;16.86;100.00
72921;BME280;61064;51.654;5.476;2023-07-31T06:48:32;100777.84;;;16.87;100.00
72921;BME280;61064;51.654;5.476;2023-07-31T06:50:57;100773.38;;;16.86;100.00
72921;BME280;61064;51.654;5.476;2023-07-31T06:53:22;100775.16;;;16.87;100.00
72921;BME280;61064;51.654;5.476;2023-07-31T06:55:48;100768.81;;;16.89;100.00
72921;BME280;61064;51.654;5.476;2023-07-31T06:58:13;100742.16;;;16.80;100.00
72921;BME280;61064;51.654;5.476;2023-07-31T07:00:39;100762.50;;;16.92;100.00
72921;BME280;61064;51.654;5.476;2023-07-31T07:03:04;100767.88;;;16.93;100.00
72921;BME280;61064;51.654;5.476;2023-07-31T07:05:29;100770.56;;;16.92;100.00
72921;BME280;61064;51.654;5.476;2023-07-31T07:07:55;100760.69;;;16.94;100.00
72921;BME280;61064;51.654;5.476;2023-07-31T07:10:20;100762.44;;;16.95;100.00
72921;BME280;61064;51.654;5.476;2023-07-31T07:12:46;100753.53;;;16.93;100.00
72921;BME280;61064;51.654;5.476;2023-07-31T07:15:12;100742.75;;;16.94;100.00
72921;BME280;61064;51.654;5.476;2023-07-31T07:17:37;100757.00;;;16.98;100.00
72921;BME280;61064;51.654;5.476;2023-07-31T07:20:03;100758.72;;;17.02;100.00
72921;BME280;61064;51.654;5.476;2023-07-31T07:22:29;100755.13;;;17.03;100.00
72921;BME280;61064;51.654;5.476;2023-07-31T07:24:54;100757.72;;;17.06;100.00
72921;BME280;61064;51.654;5.476;2023-07-31T07:27:20;100747.84;;;17.08;100.00
72921;BME280;61064;51.654;5.476;2023-07-31T07:29:46;100758.50;;;17.11;100.00
72921;BME280;61064;51.654;5.476;2023-07-31T07:32:12;100754.06;;;17.10;100.00
72921;BME280;61064;51.654;5.476;2023-07-31T07:34:38;100749.53;;;17.12;100.00
72921;BME280;61064;51.654;5.476;2023-07-31T07:37:03;100762.84;;;17.18;100.00
72921;BME280;61064;51.654;5.476;2023-07-31T07:39:29;100756.63;;;17.16;100.00
72921;BME280;61064;51.654;5.476;2023-07-31T07:41:54;100745.78;;;17.19;100.00
72921;BME280;61064;51.654;5.476;2023-07-31T07:44:20;100745.88;;;17.16;100.00
72921;BME280;61064;51.654;5.476;2023-07-31T07:46:45;100750.38;;;17.16;100.00
72921;BME280;61064;51.654;5.476;2023-07-31T07:49:10;100745.81;;;17.18;100.00
72921;BME280;61064;51.654;5.476;2023-07-31T07:51:36;100752.94;;;17.20;100.00
72921;BME280;61064;51.654;5.476;2023-07-31T07:54:02;100745.78;;;17.19;100.00
72921;BME280;61064;51.654;5.476;2023-07-31T07:56:27;100741.31;;;17.18;100.00
72921;BME280;61064;51.654;5.476;2023-07-31T07:58:53;100741.31;;;17.20;100.00
72921;BME280;61064;51.654;5.476;2023-07-31T08:01:19;100749.28;;;17.23;100.00
72921;BME280;61064;51.654;5.476;2023-07-31T08:03:45;100747.53;;;17.22;100.00
72921;BME280;61064;51.654;5.476;2023-07-31T08:06:10;100748.41;;;17.22;100.00
72921;BME280;61064;51.654;5.476;2023-07-31T08:08:36;100730.56;;;17.18;100.00
72921;BME280;61064;51.654;5.476;2023-07-31T08:11:02;100747.56;;;17.20;100.00
72921;BME280;61064;51.654;5.476;2023-07-31T08:13:27;100740.28;;;17.25;100.00
72921;BME280;61064;51.654;5.476;2023-07-31T08:15:53;100743.84;;;17.27;100.00
72921;BME280;61064;51.654;5.476;2023-07-31T08:18:19;100748.25;;;17.28;100.00
72921;BME280;61064;51.654;5.476;2023-07-31T08:20:44;100731.31;;;17.25;100.00
72921;BME280;61064;51.654;5.476;2023-07-31T08:23:10;100737.47;;;17.30;100.00
72921;BME280;61064;51.654;5.476;2023-07-31T08:25:36;100724.16;;;17.25;100.00
72921;BME280;61064;51.654;5.476;2023-07-31T08:28:02;100734.81;;;17.28;100.00
72921;BME280;61064;51.654;5.476;2023-07-31T08:30:28;100729.38;;;17.31;100.00
72921;BME280;61064;51.654;5.476;2023-07-31T08:32:54;100738.34;;;17.32;100.00
72921;BME280;61064;51.654;5.476;2023-07-31T08:35:19;100733.91;;;17.29;100.00
72921;BME280;61064;51.654;5.476;2023-07-31T08:37:45;100731.19;;;17.31;100.00
72921;BME280;61064;51.654;5.476;2023-07-31T08:40:10;100726.84;;;17.25;100.00
72921;BME280;61064;51.654;5.476;2023-07-31T08:42:46;100726.72;;;17.30;100.00
72921;BME280;61064;51.654;5.476;2023-07-31T08:45:18;100723.16;;;17.28;100.00
72921;BME280;61064;51.654;5.476;2023-07-31T08:47:49;100724.13;;;17.27;100.00
72921;BME280;61064;51.654;5.476;2023-07-31T08:50:17;100722.38;;;17.24;100.00
72921;BME280;61064;51.654;5.476;2023-07-31T08:52:43;100739.28;;;17.29;100.00
72921;BME280;61064;51.654;5.476;2023-07-31T08:55:09;100749.16;;;17.29;100.00
72921;BME280;61064;51.654;5.476;2023-07-31T08:57:36;100743.75;;;17.30;100.00
72921;BME280;61064;51.654;5.476;2023-07-31T09:00:07;100738.41;;;17.29;100.00
72921;BME280;61064;51.654;5.476;2023-07-31T09:02:46;100724.16;;;17.24;100.00
72921;BME280;61064;51.654;5.476;2023-07-31T09:05:14;100733.91;;;17.29;100.00
72921;BME280;61064;51.654;5.476;2023-07-31T09:07:40;100726.72;;;17.30;100.00
72921;BME280;61064;51.654;5.476;2023-07-31T09:10:07;100733.00;;;17.30;100.00
72921;BME280;61064;51.654;5.476;2023-07-31T09:12:33;100730.31;;;17.30;100.00
72921;BME280;61064;51.654;5.476;2023-07-31T09:14:58;100732.06;;;17.31;100.00
72921;BME280;61064;51.654;5.476;2023-07-31T09:17:39;100739.16;;;17.34;100.00
72921;BME280;61064;51.654;5.476;2023-07-31T09:20:16;100727.53;;;17.33;100.00
72921;BME280;61064;51.654;5.476;2023-07-31T09:22:42;100725.66;;;17.37;100.00
72921;BME280;61064;51.654;5.476;2023-07-31T09:25:21;100723.75;;;17.42;100.00
72921;BME280;61064;51.654;5.476;2023-07-31T09:30:18;100722.72;;;17.48;100.00
72921;BME280;61064;51.654;5.476;2023-07-31T09:32:44;100716.34;;;17.52;100.00
72921;BME280;61064;51.654;5.476;2023-07-31T09:35:33;100718.03;;;17.56;100.00
72921;BME280;61064;51.654;5.476;2023-07-31T09:38:10;100712.59;;;17.59;100.00
72921;BME280;61064;51.654;5.476;2023-07-31T09:40:40;100713.41;;;17.64;100.00
72921;BME280;61064;51.654;5.476;2023-07-31T09:43:11;100706.13;;;17.67;100.00
72921;BME280;61064;51.654;5.476;2023-07-31T09:45:39;100713.25;;;17.70;100.00
72921;BME280;61064;51.654;5.476;2023-07-31T09:48:17;100699.84;;;17.67;100.00
72921;BME280;61064;51.654;5.476;2023-07-31T09:50:48;100704.13;;;17.75;100.00
72921;BME280;61064;51.654;5.476;2023-07-31T09:53:15;100704.03;;;17.78;100.00
72921;BME280;61064;51.654;5.476;2023-07-31T09:55:42;100707.50;;;17.83;100.00
72921;BME280;61064;51.654;5.476;2023-07-31T09:58:09;100697.47;;;17.90;100.00
72921;BME280;61064;51.654;5.476;2023-07-31T10:00:36;100708.06;;;17.96;100.00
72921;BME280;61064;51.654;5.476;2023-07-31T10:03:06;100693.59;;;18.00;100.00
72921;BME280;61064;51.654;5.476;2023-07-31T10:05:40;100693.44;;;18.06;100.00
72921;BME280;61064;51.654;5.476;2023-07-31T10:08:09;100705.84;;;18.13;100.00
72921;BME280;61064;51.654;5.476;2023-07-31T10:10:36;100700.38;;;18.16;100.00
72921;BME280;61064;51.654;5.476;2023-07-31T10:13:04;100699.41;;;18.19;100.00
72921;BME280;61064;51.654;5.476;2023-07-31T10:15:30;100697.69;;;18.16;100.00
72921;BME280;61064;51.654;5.476;2023-07-31T10:17:57;100698.31;;;18.26;100.00
72921;BME280;61064;51.654;5.476;2023-07-31T10:20:24;100714.38;;;18.29;100.00
72921;BME280;61064;51.654;5.476;2023-07-31T10:22:51;100694.63;;;18.28;100.00
72921;BME280;61064;51.654;5.476;2023-07-31T10:25:18;100698.19;;;18.31;100.00
72921;BME280;61064;51.654;5.476;2023-07-31T10:27:47;100686.53;;;18.30;100.00
72921;BME280;61064;51.654;5.476;2023-07-31T10:30:17;100689.06;;;18.35;100.00
72921;BME280;61064;51.654;5.476;2023-07-31T10:32:44;100681.81;;;18.38;100.00
72921;BME280;61064;51.654;5.476;2023-07-31T10:35:11;100683.34;;;18.47;100.00
72921;BME280;61064;51.654;5.476;2023-07-31T10:37:37;100682.28;;;18.52;99.94
72921;BME280;61064;51.654;5.476;2023-07-31T10:40:10;100688.56;;;18.53;99.83
72921;BME280;61064;51.654;5.476;2023-07-31T10:42:37;100684.94;;;18.55;100.00
72921;BME280;61064;51.654;5.476;2023-07-31T10:45:07;100689.31;;;18.59;99.44
72921;BME280;61064;51.654;5.476;2023-07-31T10:47:45;100688.31;;;18.62;99.28
72921;BME280;61064;51.654;5.476;2023-07-31T10:50:20;100691.03;;;18.62;99.27
72921;BME280;61064;51.654;5.476;2023-07-31T10:52:47;100698.84;;;18.71;99.16
72921;BME280;61064;51.654;5.476;2023-07-31T10:55:35;100689.78;;;18.74;98.96
72921;BME280;61064;51.654;5.476;2023-07-31T10:58:11;100685.25;;;18.76;98.72
72921;BME280;61064;51.654;5.476;2023-07-31T11:00:41;100685.22;;;18.77;98.40
72921;BME280;61064;51.654;5.476;2023-07-31T11:03:09;100677.94;;;18.79;98.34
72921;BME280;61064;51.654;5.476;2023-07-31T11:06:01;100682.41;;;18.80;98.30
72921;BME280;61064;51.654;5.476;2023-07-31T11:08:29;100675.09;;;18.84;98.32
72921;BME280;61064;51.654;5.476;2023-07-31T11:13:34;100668.63;;;18.89;98.04
72921;BME280;61064;51.654;5.476;2023-07-31T11:16:04;100668.63;;;18.89;97.86
72921;BME280;61064;51.654;5.476;2023-07-31T11:18:29;100667.66;;;18.92;97.49
72921;BME280;61064;51.654;5.476;2023-07-31T11:20:55;100669.47;;;18.91;97.85
72921;BME280;61064;51.654;5.476;2023-07-31T11:23:22;100661.31;;;18.94;97.13
72921;BME280;61064;51.654;5.476;2023-07-31T11:25:47;100671.84;;;19.02;97.20
72921;BME280;61064;51.654;5.476;2023-07-31T11:28:14;100675.34;;;19.05;96.96
72921;BME280;61064;51.654;5.476;2023-07-31T11:30:42;100662.78;;;19.04;97.08
72921;BME280;61064;51.654;5.476;2023-07-31T11:33:09;100665.19;;;19.14;97.11
72921;BME280;61064;51.654;5.476;2023-07-31T11:35:40;100666.84;;;19.18;96.84
72921;BME280;61064;51.654;5.476;2023-07-31T11:38:07;100663.22;;;19.19;96.85
72921;BME280;61064;51.654;5.476;2023-07-31T11:40:41;100658.72;;;19.19;96.81
72921;BME280;61064;51.654;5.476;2023-07-31T11:43:07;100667.53;;;19.24;96.63
72921;BME280;61064;51.654;5.476;2023-07-31T11:45:33;100667.69;;;19.20;96.47
72921;BME280;61064;51.654;5.476;2023-07-31T11:47:58;100657.03;;;19.17;96.42
72921;BME280;61064;51.654;5.476;2023-07-31T11:50:24;100658.03;;;19.13;96.59
72921;BME280;61064;51.654;5.476;2023-07-31T11:53:03;100647.44;;;19.06;96.59
72921;BME280;61064;51.654;5.476;2023-07-31T11:55:31;100638.69;;;19.00;96.45
72921;BME280;61064;51.654;5.476;2023-07-31T11:57:57;100650.13;;;19.06;96.40
72921;BME280;61064;51.654;5.476;2023-07-31T12:00:24;100638.53;;;19.04;96.14
72921;BME280;61064;51.654;5.476;2023-07-31T12:02:51;100637.50;;;19.08;96.37
72921;BME280;61064;51.654;5.476;2023-07-31T12:05:17;100639.22;;;19.11;96.24
72921;BME280;61064;51.654;5.476;2023-07-31T12:07:50;100653.28;;;19.21;96.21
72921;BME280;61064;51.654;5.476;2023-07-31T12:10:23;100647.97;;;19.18;95.77
72921;BME280;61064;51.654;5.476;2023-07-31T12:15:36;100669.44;;;19.22;95.42
72921;BME280;61064;51.654;5.476;2023-07-31T12:18:13;100654.38;;;19.15;95.33
72921;BME280;61064;51.654;5.476;2023-07-31T12:20:43;100664.25;;;19.15;95.31
72921;BME280;61064;51.654;5.476;2023-07-31T12:23:20;100652.69;;;19.11;95.48
72921;BME280;61064;51.654;5.476;2023-07-31T12:28:39;100631.91;;;19.15;95.72
72921;BME280;61064;51.654;5.476;2023-07-31T12:31:05;100633.47;;;19.22;96.04
72921;BME280;61064;51.654;5.476;2023-07-31T12:33:33;100627.94;;;19.26;96.04
72921;BME280;61064;51.654;5.476;2023-07-31T12:36:01;100625.19;;;19.28;95.74
72921;BME280;61064;51.654;5.476;2023-07-31T12:38:27;100617.88;;;19.31;95.59
72921;BME280;61064;51.654;5.476;2023-07-31T12:40:52;100625.72;;;19.39;95.53
72921;BME280;61064;51.654;5.476;2023-07-31T12:43:18;100634.63;;;19.41;95.19
72921;BME280;61064;51.654;5.476;2023-07-31T12:45:43;100639.97;;;19.42;95.23
72921;BME280;61064;51.654;5.476;2023-07-31T12:48:09;100618.63;;;19.35;95.17
72921;BME280;61064;51.654;5.476;2023-07-31T12:50:35;100629.44;;;19.35;95.15
72921;BME280;61064;51.654;5.476;2023-07-31T12:53:04;100630.28;;;19.37;95.44
72921;BME280;61064;51.654;5.476;2023-07-31T12:55:30;100609.00;;;19.28;95.66
72921;BME280;61064;51.654;5.476;2023-07-31T12:57:55;100612.72;;;19.24;95.90